Time;durP1;ratioP1;P1;durP2;ratioP2;P2;SDS_P1;SDS_P2;PMS_P1;PMS_P2;Temp;Humidity;BMP_temperature;BMP_pressure;BME280_temperature;BME280_humidity;BME280_pressure;Samples;Min_cycle;Max_cycle;Signal;HPM_P1;HPM_P2
2022/07/26 00:02:01;;;;;;;22.55;10.68;;;19.00;99.90;;;18.16;100.00;100527.19;4984493;28;20045;-76
2022/07/26 00:04:27;;;;;;;20.58;10.35;;;19.00;99.90;;;18.16;100.00;100514.75;4993590;28;20048;-76
2022/07/26 00:06:53;;;;;;;;;;;19.00;99.90;;;18.14;100.00;100511.34;4997549;28;20034;-76
2022/07/26 00:09:19;;;;;;;24.38;9.93;;;18.90;99.90;;;18.13;100.00;100506.13;4991196;28;19913;-76
2022/07/26 00:11:45;;;;;;;33.10;10.77;;;19.00;99.90;;;18.16;100.00;100503.22;4991143;28;20605;-77
2022/07/26 00:14:11;;;;;;;20.23;10.00;;;18.90;99.90;;;18.16;100.00;100506.75;5028284;28;20053;-76
2022/07/26 00:16:39;;;;;;;26.20;9.60;;;18.90;99.90;;;18.17;100.00;100508.41;4990656;28;20061;-76
2022/07/26 00:19:06;;;;;;;17.45;9.55;;;18.90;99.90;;;18.19;100.00;100503.81;4984440;28;20033;-76
2022/07/26 00:21:35;;;;;;;27.77;10.18;;;19.00;99.90;;;18.19;100.00;100502.97;4998840;28;20033;-76
2022/07/26 00:24:04;;;;;;;25.08;9.23;;;18.90;99.90;;;18.15;100.00;100505.03;5008351;28;20034;-77
2022/07/26 00:26:31;;;;;;;19.70;8.85;;;18.90;99.90;;;18.13;100.00;100498.16;5000709;28;20188;-76
2022/07/26 00:28:57;;;;;;;23.48;9.27;;;18.90;99.90;;;18.07;100.00;100502.16;4995385;28;20040;-76
2022/07/26 00:31:23;;;;;;;20.38;9.18;;;18.80;99.90;;;18.00;100.00;100498.28;4989723;28;20567;-76
2022/07/26 00:33:51;;;;;;;;;;;18.80;99.90;;;17.86;100.00;100510.09;4996283;28;20040;-76
2022/07/26 00:36:17;;;;;;;21.65;9.07;;;18.70;99.90;;;17.79;100.00;100522.16;4998730;28;20000;-76
2022/07/26 00:38:43;;;;;;;17.10;8.93;;;18.60;99.90;;;17.73;100.00;100511.97;4979642;28;20103;-77
2022/07/26 00:41:08;;;;;;;;;;;18.60;99.90;;;17.66;100.00;100521.44;4997103;28;20046;-76
2022/07/26 00:43:35;;;;;;;20.77;8.88;;;18.50;99.90;;;17.60;100.00;100520.09;5029778;28;20492;-76
2022/07/26 00:46:01;;;;;;;31.00;9.88;;;18.40;99.90;;;17.56;100.00;100524.00;4983006;28;20034;-77
2022/07/26 00:48:27;;;;;;;30.25;10.30;;;18.40;99.90;;;17.53;100.00;100533.06;4986774;28;20387;-76
2022/07/26 00:50:53;;;;;;;;;;;18.40;99.90;;;17.43;100.00;100527.63;4997222;28;20049;-77
2022/07/26 00:53:21;;;;;;;26.77;10.15;;;18.30;99.90;;;17.38;100.00;100524.44;5003550;28;20370;-77
2022/07/26 00:55:48;;;;;;;31.90;10.13;;;18.30;99.90;;;17.36;100.00;100521.06;4989625;28;20038;-76
2022/07/26 00:58:16;;;;;;;32.00;10.52;;;18.20;99.90;;;17.34;100.00;100512.38;4996585;28;20049;-77
2022/07/26 01:00:42;;;;;;;21.88;9.40;;;18.20;99.90;;;17.32;100.00;100511.66;5018840;28;20029;-76
2022/07/26 01:03:08;;;;;;;24.73;10.43;;;18.20;99.90;;;17.29;100.00;100511.88;4989161;28;20061;-76
2022/07/26 01:05:34;;;;;;;;;;;18.10;99.90;;;17.22;100.00;100518.66;4996717;28;20442;-76
2022/07/26 01:08:00;;;;;;;31.88;10.27;;;18.10;99.90;;;17.17;100.00;100510.16;4996278;28;19924;-76
2022/07/26 01:10:26;;;;;;;39.47;11.13;;;18.00;99.90;;;17.16;100.00;100511.13;4996782;28;20037;-76
2022/07/26 01:12:52;;;;;;;;;;;18.00;99.90;;;17.07;100.00;100509.19;4970307;28;21237;-76
2022/07/26 01:15:18;;;;;;;33.08;10.25;;;17.90;99.90;;;17.02;100.00;100517.53;4997869;28;19913;-77
2022/07/26 01:17:44;;;;;;;;;;;17.90;99.90;;;16.95;100.00;100514.50;4997533;28;20080;-76
2022/07/26 01:20:12;;;;;;;31.13;9.70;;;17.80;99.90;;;16.89;100.00;100508.78;4997150;28;19930;-77
2022/07/26 01:22:39;;;;;;;28.75;10.27;;;17.80;99.90;;;16.87;100.00;100503.59;4995138;28;20041;-76
2022/07/26 01:25:07;;;;;;;31.52;10.73;;;17.80;99.90;;;16.86;100.00;100498.41;4995538;28;20038;-76
2022/07/26 01:27:38;;;;;;;27.52;10.52;;;17.70;99.90;;;16.85;100.00;100504.69;4996074;28;20034;-76
2022/07/26 01:30:07;;;;;;;28.67;10.80;;;17.70;99.90;;;16.81;100.00;100499.59;5010852;28;20517;-77
2022/07/26 01:32:34;;;;;;;31.48;10.10;;;17.70;99.90;;;16.80;100.00;100507.69;4994629;28;20030;-77
2022/07/26 01:34:59;;;;;;;37.78;10.27;;;17.70;99.90;;;16.76;100.00;100498.19;4996706;28;20383;-77
2022/07/26 01:37:25;;;;;;;;;;;17.60;99.90;;;16.71;100.00;100509.19;4986918;28;20038;-76
2022/07/26 01:39:51;;;;;;;29.40;9.50;;;17.60;99.90;;;16.67;100.00;100501.56;4999299;28;19924;-76
2022/07/26 01:42:17;;;;;;;;;;;17.60;99.90;;;16.60;100.00;100487.91;4987841;28;20050;-77
2022/07/26 01:44:42;;;;;;;32.10;9.27;;;17.50;99.90;;;16.57;100.00;100491.63;5034835;28;19913;-76
2022/07/26 01:47:08;;;;;;;;;;;17.50;99.90;;;16.51;100.00;100500.06;4980424;28;20026;-76
2022/07/26 01:49:34;;;;;;;26.83;9.25;;;17.40;99.90;;;16.49;100.00;100501.16;4995843;28;19944;-76
2022/07/26 01:52:00;;;;;;;;;;;17.40;99.90;;;16.44;100.00;100509.47;4985469;28;20037;-76
2022/07/26 01:54:25;;;;;;;31.20;9.80;;;17.40;99.90;;;16.42;100.00;100502.59;4987765;28;19913;-77
2022/07/26 01:56:51;;;;;;;;;;;17.30;99.90;;;16.37;100.00;100498.47;4997147;28;20038;-77
2022/07/26 01:59:17;;;;;;;34.25;10.02;;;17.30;99.90;;;16.34;100.00;100511.94;4978332;28;20374;-77
2022/07/26 02:01:43;;;;;;;31.58;9.68;;;17.30;99.90;;;16.33;100.00;100517.41;5002678;28;20045;-76
2022/07/26 02:04:57;;;;;;;;;;;17.30;99.90;;;16.27;100.00;100516.03;4986375;28;20048;-77
2022/07/26 02:06:55;;;;;;;25.25;9.13;;;17.20;99.90;;;16.24;100.00;100512.75;4986841;28;19928;-77
2022/07/26 02:09:20;;;;;;;;;;;17.20;99.90;;;16.17;100.00;100513.19;4981827;28;20025;-76
2022/07/26 02:11:47;;;;;;;30.33;9.00;;;17.10;99.90;;;16.15;100.00;100511.63;4987261;28;19917;-76
2022/07/26 02:14:13;;;;;;;27.23;7.65;;;17.10;99.90;;;16.18;100.00;100512.25;4997284;28;20117;-77
2022/07/26 02:16:39;;;;;;;;;;;17.10;99.90;;;16.11;100.00;100513.66;4997600;28;20071;-77
2022/07/26 02:19:05;;;;;;;26.30;8.02;;;17.10;99.90;;;16.09;100.00;100515.59;5021418;28;19929;-77
2022/07/26 02:21:31;;;;;;;26.15;8.65;;;17.00;99.90;;;16.09;100.00;100507.63;4989986;28;20056;-77
2022/07/26 02:23:57;;;;;;;;;;;17.00;99.90;;;16.04;100.00;100512.41;5028163;28;20030;-76
2022/07/26 02:26:23;;;;;;;35.13;8.73;;;17.00;99.90;;;16.03;100.00;100509.88;5003181;28;19967;-77
2022/07/26 02:28:48;;;;;;;;;;;17.00;99.90;;;15.97;100.00;100514.66;4986266;28;20026;-77
2022/07/26 02:31:14;;;;;;;31.55;7.43;;;16.90;99.90;;;15.96;100.00;100515.63;4997982;28;19921;-76
2022/07/26 02:33:40;;;;;;;;;;;16.90;99.90;;;15.92;100.00;100519.47;4987358;28;20025;-77
2022/07/26 02:36:06;;;;;;;34.67;8.00;;;16.90;99.90;;;15.89;100.00;100524.13;4995195;28;19921;-76
2022/07/26 02:38:31;;;;;;;;;;;16.90;99.90;;;15.86;100.00;100533.19;4987335;28;20033;-76
2022/07/26 02:40:57;;;;;;;32.75;7.70;;;16.80;99.90;;;15.86;100.00;100529.69;5028609;28;19925;-77
2022/07/26 02:43:23;;;;;;;;;;;16.80;99.90;;;15.83;100.00;100530.75;4983856;28;20040;-76
2022/07/26 02:45:49;;;;;;;34.33;7.43;;;16.80;99.90;;;15.81;100.00;100534.44;4997085;28;19964;-76
2022/07/26 02:48:15;;;;;;;;;;;16.70;99.90;;;15.78;100.00;100533.72;5019466;28;20041;-76
2022/07/26 02:50:41;;;;;;;33.10;7.97;;;16.70;99.90;;;15.78;100.00;100546.97;4993031;28;20023;-76
2022/07/26 02:53:06;;;;;;;;;;;16.70;99.90;;;15.73;100.00;100540.31;4987791;28;20504;-76
2022/07/26 02:55:32;;;;;;;31.13;7.10;;;16.70;99.90;;;15.72;100.00;100538.59;5028652;28;20322;-76
2022/07/26 02:57:58;;;;;;;;;;;16.70;99.90;;;15.68;100.00;100537.09;4979399;28;20053;-76
2022/07/26 03:00:25;;;;;;;27.63;7.20;;;16.60;99.90;;;15.67;100.00;100544.22;4989234;28;20297;-77
2022/07/26 03:02:52;;;;;;;30.58;7.78;;;16.60;99.90;;;15.68;100.00;100547.72;5010997;28;20494;-78
2022/07/26 03:05:21;;;;;;;37.95;7.10;;;16.60;99.90;;;15.68;100.00;100543.28;4984749;28;20046;-76
2022/07/26 03:07:47;;;;;;;34.83;7.15;;;16.60;99.90;;;15.68;100.00;100543.28;4985272;28;20119;-77
2022/07/26 03:10:13;;;;;;;27.83;7.32;;;16.60;99.90;;;15.70;100.00;100548.44;5025505;28;20140;-76
2022/07/26 03:12:39;;;;;;;31.75;6.95;;;16.60;99.90;;;15.71;100.00;100547.50;4986319;28;20030;-76
2022/07/26 03:15:05;;;;;;;29.73;6.97;;;16.60;99.90;;;15.72;100.00;100546.56;5000978;28;20639;-76
2022/07/26 03:17:31;;;;;;;26.13;7.25;;;16.70;99.90;;;15.74;100.00;100545.53;5002030;28;20585;-76
2022/07/26 03:19:57;;;;;;;;;;;16.60;99.90;;;15.69;100.00;100544.13;4978330;28;20033;-76
2022/07/26 03:22:23;;;;;;;25.63;6.50;;;16.70;99.90;;;15.70;100.00;100544.03;4978386;28;20374;-76
2022/07/26 03:24:48;;;;;;;;;;;16.60;99.90;;;15.70;100.00;100540.50;4978333;28;20037;-77
2022/07/26 03:27:14;;;;;;;28.55;7.07;;;16.70;99.90;;;15.73;100.00;100543.81;4993909;28;20343;-76
2022/07/26 03:29:40;;;;;;;;;;;16.70;99.90;;;15.74;100.00;100542.88;4996603;28;20030;-76
2022/07/26 03:32:06;;;;;;;19.67;6.53;;;16.70;99.90;;;15.78;100.00;100536.38;4986572;28;19917;-77
2022/07/26 03:34:32;;;;;;;;;;;16.70;99.90;;;15.82;100.00;100541.47;4997442;28;20120;-76
2022/07/26 03:36:58;;;;;;;28.38;6.63;;;16.70;99.90;;;15.85;100.00;100526.16;5010910;28;20275;-76
2022/07/26 03:39:24;;;;;;;30.25;6.80;;;16.80;99.90;;;15.91;100.00;100533.69;5004162;28;20493;-76
2022/07/26 03:41:50;;;;;;;31.63;7.43;;;16.80;99.90;;;16.00;100.00;100532.16;4996161;28;20510;-77
2022/07/26 03:44:15;;;;;;;;;;;16.80;99.90;;;16.03;100.00;100523.16;4989490;28;20037;-76
2022/07/26 03:46:41;;;;;;;36.25;7.35;;;16.90;99.90;;;16.07;100.00;100517.50;4997271;28;19932;-76
2022/07/26 03:49:07;;;;;;;;;;;16.90;99.90;;;16.12;100.00;100512.69;5002145;28;20560;-77
2022/07/26 03:51:33;;;;;;;31.20;7.22;;;17.00;99.90;;;16.19;100.00;100521.91;5009495;28;19943;-77
2022/07/26 03:53:59;;;;;;;;;;;17.00;99.90;;;16.30;100.00;100529.06;4998447;28;20041;-77
2022/07/26 03:56:30;;;;;;;34.70;7.72;;;17.10;99.90;;;16.42;100.00;100531.81;5003969;28;19948;-77
2022/07/26 03:59:00;;;;;;;39.30;7.93;;;17.20;99.90;;;16.50;100.00;100535.59;4981231;28;20037;-77
2022/07/26 04:01:27;;;;;;;19.33;6.53;;;17.30;99.90;;;16.56;100.00;100534.28;4999211;28;20034;-77
2022/07/26 04:03:53;;;;;;;27.75;7.25;;;17.40;99.90;;;16.79;100.00;100541.38;5025969;28;20030;-77
2022/07/26 04:06:22;;;;;;;33.35;7.47;;;17.50;99.90;;;17.56;100.00;100535.47;4998396;28;20578;-76
2022/07/26 04:08:48;;;;;;;34.65;7.68;;;19.20;99.90;;;18.89;100.00;100536.25;4999465;28;20037;-76
2022/07/26 04:11:14;;;;;;;;;;;19.30;99.90;;;20.08;100.00;100540.19;5000462;28;20038;-76
2022/07/26 04:13:40;;;;;;;23.20;5.80;;;21.40;99.90;;;21.38;96.18;100539.88;4989212;28;19917;-77
2022/07/26 04:16:06;;;;;;;31.52;6.60;;;22.40;99.90;;;22.55;86.59;100545.50;5008787;28;20049;-77
2022/07/26 04:18:33;;;;;;;27.50;6.03;;;23.50;99.90;;;23.61;79.74;100549.97;4999024;28;20077;-77
2022/07/26 04:20:59;;;;;;;24.50;5.72;;;24.40;99.90;;;24.62;74.70;100547.28;4995886;28;20045;-76
2022/07/26 04:23:25;;;;;;;31.23;5.97;;;25.20;99.90;;;25.38;70.57;100547.91;5004740;28;20175;-77
2022/07/26 04:25:51;;;;;;;;;;;25.20;99.90;;;26.14;67.19;100549.13;4994447;28;20487;-77
2022/07/26 04:28:17;;;;;;;29.70;5.55;;;26.50;99.90;;;26.88;64.76;100551.31;4997244;28;19917;-77
2022/07/26 04:30:43;;;;;;;25.52;5.30;;;26.90;99.90;;;27.25;62.94;100551.50;4985671;28;20040;-77
2022/07/26 04:33:09;;;;;;;24.63;5.43;;;27.40;99.90;;;27.95;60.42;100556.47;5002024;28;20033;-77
2022/07/26 04:35:35;;;;;;;28.98;6.07;;;27.90;99.90;;;28.68;58.40;100566.41;4980843;28;20418;-78
2022/07/26 04:38:02;;;;;;;26.83;5.50;;;28.30;99.90;;;29.06;56.70;100566.97;4996912;28;20034;-77
2022/07/26 04:40:32;;;;;;;28.05;6.15;;;28.70;99.90;;;29.61;55.18;100570.69;4995052;28;20037;-77
2022/07/26 04:43:00;;;;;;;20.58;4.88;;;29.00;99.90;;;29.89;54.08;100571.69;4986987;28;20729;-77
2022/07/26 04:45:25;;;;;;;15.73;4.35;;;29.30;99.90;;;30.48;52.51;100571.06;4996128;28;20037;-77
2022/07/26 04:47:52;;;;;;;21.05;4.60;;;29.70;99.80;;;31.10;50.96;100577.19;4971268;28;20044;-77
2022/07/26 04:50:19;;;;;;;16.92;4.13;;;30.10;98.40;;;31.64;49.25;100586.13;5000185;28;20394;-76
2022/07/26 04:52:47;;;;;;;20.25;4.20;;;30.50;98.10;;;32.34;48.08;100596.38;4997386;28;20084;-77
2022/07/26 04:55:13;;;;;;;25.23;4.75;;;31.00;97.40;;;32.97;46.62;100606.44;4995803;28;20116;-77
2022/07/26 04:57:39;;;;;;;22.25;4.55;;;31.40;97.00;;;33.46;45.35;100604.78;5029664;28;20954;-77
2022/07/26 05:00:12;;;;;;;21.50;4.88;;;31.70;95.50;;;33.84;44.42;100606.47;4994587;28;20028;-77
2022/07/26 05:02:38;;;;;;;16.35;4.22;;;32.10;95.00;;;34.07;43.73;100606.59;5022647;28;20711;-77
2022/07/26 05:05:05;;;;;;;18.08;4.00;;;32.30;94.80;;;34.53;42.77;100607.88;4982491;28;20030;-76
2022/07/26 05:07:50;;;;;;;18.17;3.97;;;32.50;94.40;;;34.90;41.91;100609.66;4993029;28;20037;-78
2022/07/26 05:10:18;;;;;;;13.52;3.85;;;32.80;93.90;;;35.30;41.47;100612.59;4999932;28;20044;-77
2022/07/26 05:12:45;;;;;;;21.10;3.85;;;33.00;93.80;;;35.76;41.00;100617.47;4990498;28;20041;-77
2022/07/26 05:15:13;;;;;;;20.27;4.10;;;33.40;93.40;;;36.26;40.06;100627.81;4990616;28;20042;-78
2022/07/26 05:17:39;;;;;;;17.58;4.68;;;33.70;92.80;;;36.53;39.46;100612.44;5026467;28;20069;-78
2022/07/26 05:20:14;;;;;;;21.58;4.25;;;33.90;91.90;;;36.76;38.55;100627.13;4993255;28;20036;-78
2022/07/26 05:22:40;;;;;;;23.52;4.45;;;34.10;91.90;;;37.13;38.14;100632.19;4991892;28;20042;-78
2022/07/26 05:25:07;;;;;;;16.45;3.92;;;34.40;91.10;;;37.19;37.87;100633.06;4988322;28;20041;-78
2022/07/26 05:27:33;;;;;;;17.55;4.28;;;34.40;91.20;;;37.12;37.70;100636.00;5011758;28;20034;-78
2022/07/26 05:29:59;;;;;;;18.80;4.28;;;34.60;91.30;;;37.72;36.70;100640.75;5004094;28;20135;-78
2022/07/26 05:32:26;;;;;;;19.58;4.18;;;34.80;90.60;;;38.01;36.68;100651.56;4996759;28;20072;-77
2022/07/26 05:34:54;;;;;;;12.93;3.60;;;35.10;90.10;;;38.43;35.98;100661.16;4979309;28;20036;-78
2022/07/26 05:37:20;;;;;;;18.80;4.25;;;35.30;89.90;;;38.52;35.63;100656.88;5007246;28;20050;-78
2022/07/26 05:39:46;;;;;;;14.18;3.83;;;35.50;90.00;;;39.11;34.92;100647.78;4979966;28;20084;-78
2022/07/26 05:42:12;;;;;;;16.83;4.00;;;35.90;89.10;;;39.52;34.61;100656.38;4997579;28;20074;-79
2022/07/26 05:44:37;;;;;;;13.65;3.70;;;36.00;86.60;;;39.13;34.45;100657.44;4989681;28;20029;-78
2022/07/26 05:47:03;;;;;;;15.77;3.65;;;36.00;87.40;;;39.04;34.60;100663.72;4996803;28;20062;-78
2022/07/26 05:49:29;;;;;;;18.92;3.67;;;36.10;87.40;;;39.53;34.08;100671.81;5023515;28;20033;-78
2022/07/26 05:51:55;;;;;;;18.95;4.53;;;35.90;86.90;;;37.20;36.72;100664.94;4979961;28;20030;-77
2022/07/26 05:54:21;;;;;;;17.15;4.30;;;34.90;87.60;;;33.99;41.75;100667.00;4965747;28;20139;-79
2022/07/26 05:56:48;;;;;;;22.05;3.88;;;33.30;89.70;;;31.53;45.61;100650.19;4985693;28;20038;-78
2022/07/26 05:59:14;;;;;;;22.35;3.88;;;31.70;90.90;;;29.78;49.12;100655.34;5015303;28;20099;-78
2022/07/26 06:01:40;;;;;;;15.10;3.83;;;30.20;92.60;;;28.25;52.34;100645.72;5012666;28;20691;-78
2022/07/26 06:04:07;;;;;;;21.73;4.32;;;28.90;94.40;;;26.99;56.03;100645.44;4969519;28;20057;-78
2022/07/26 06:06:33;;;;;;;12.82;4.20;;;27.70;95.90;;;25.80;59.66;100646.50;4990946;28;20060;-78
2022/07/26 06:08:59;;;;;;;19.02;3.97;;;26.60;97.40;;;25.55;61.58;100640.31;4963309;28;20046;-78
2022/07/26 06:11:27;;;;;;;19.80;3.35;;;26.00;98.50;;;24.72;63.20;100631.38;4962570;28;20461;-78
2022/07/26 06:13:53;;;;;;;15.50;4.18;;;25.70;99.90;;;24.88;63.34;100632.41;5015922;28;20034;-78
2022/07/26 06:16:18;;;;;;;17.50;4.60;;;25.20;99.90;;;24.28;64.64;100615.44;4969926;28;20088;-77
2022/07/26 06:18:44;;;;;;;13.35;4.28;;;24.90;99.90;;;23.85;65.88;100611.91;4983543;28;20876;-78
2022/07/26 06:21:11;;;;;;;;;;;24.80;99.90;;;23.42;67.78;100604.75;4977558;28;20041;-78
2022/07/26 06:23:37;;;;;;;16.38;4.10;;;24.20;99.90;;;23.19;69.31;100607.09;5000057;28;20301;-78
2022/07/26 06:26:04;;;;;;;19.70;4.05;;;23.90;99.90;;;23.01;69.88;100610.66;4973066;28;20045;-78
2022/07/26 06:28:32;;;;;;;14.38;3.80;;;23.60;99.90;;;22.81;71.03;100609.13;4992781;28;20041;-78
2022/07/26 06:30:58;;;;;;;20.58;4.05;;;23.50;99.90;;;22.60;72.15;100596.84;5013105;28;20038;-78
2022/07/26 06:33:24;;;;;;;15.95;4.20;;;23.20;99.90;;;22.47;72.64;100596.38;4993684;28;20085;-79
2022/07/26 06:35:50;;;;;;;;;;;23.20;99.90;;;22.32;74.06;100594.22;5013568;28;20056;-79
2022/07/26 06:38:16;;;;;;;15.90;3.88;;;23.10;99.90;;;22.73;73.52;100591.09;5009736;28;19927;-78
2022/07/26 06:40:41;;;;;;;;;;;23.10;99.90;;;23.02;73.36;100584.66;4996953;28;20574;-78
2022/07/26 06:43:12;;;;;;;33.33;4.45;;;23.50;99.90;;;23.98;67.71;100586.44;4995249;28;20007;-79
2022/07/26 06:45:38;;;;;;;14.43;4.05;;;23.90;99.90;;;24.38;68.00;100591.09;4979335;28;20029;-78
2022/07/26 06:48:04;;;;;;;14.90;4.32;;;24.40;99.90;;;25.94;63.68;100581.09;5009780;28;20108;-78
2022/07/26 06:50:30;;;;;;;20.63;4.80;;;25.50;99.90;;;27.69;58.63;100583.13;4984238;28;20132;-77
2022/07/26 06:52:56;;;;;;;13.77;3.47;;;26.90;99.90;;;28.94;54.13;100590.19;4994306;28;20056;-78
2022/07/26 06:55:21;;;;;;;18.65;4.13;;;28.10;99.90;;;29.78;53.21;100592.91;4955665;28;20065;-79
2022/07/26 06:57:47;;;;;;;17.35;3.75;;;28.50;99.50;;;28.00;56.07;100596.47;4994935;28;20041;-79
2022/07/26 07:00:17;;;;;;;13.82;3.40;;;28.10;99.30;;;26.99;57.91;100591.38;4990451;28;20037;-79
2022/07/26 07:02:45;;;;;;;14.93;3.78;;;27.30;99.90;;;25.90;61.14;100597.81;4932325;28;20092;-78
2022/07/26 07:05:11;;;;;;;12.98;3.85;;;26.60;99.90;;;26.18;61.30;100588.22;4987378;28;20041;-78
2022/07/26 07:07:37;;;;;;;13.98;3.58;;;26.80;99.90;;;27.24;58.13;100587.69;5002279;28;20053;-78
2022/07/26 07:10:05;;;;;;;14.75;3.75;;;27.60;99.90;;;28.96;54.33;100605.25;4994326;28;20724;-79
2022/07/26 07:12:33;;;;;;;12.27;3.00;;;28.40;99.90;;;30.13;51.88;100602.91;4988151;28;20046;-78
2022/07/26 07:15:01;;;;;;;12.90;2.47;;;29.80;98.50;;;31.92;47.69;100607.59;4954136;28;20042;-80
2022/07/26 07:17:27;;;;;;;11.30;2.70;;;31.10;97.10;;;32.58;46.52;100609.22;5014181;28;20048;-79
2022/07/26 07:19:53;;;;;;;11.27;3.10;;;32.00;95.70;;;32.60;46.66;100614.47;5002406;28;20034;-79
2022/07/26 07:22:19;;;;;;;9.90;3.00;;;31.80;93.20;;;30.83;48.10;100612.50;5018570;28;20045;-79
2022/07/26 07:24:45;;;;;;;13.65;3.10;;;31.20;93.80;;;30.52;48.68;100604.09;4990570;28;20444;-78
2022/07/26 07:27:13;;;;;;;14.32;3.00;;;30.90;94.30;;;30.59;48.99;100615.81;4967250;28;20046;-79
2022/07/26 07:29:42;;;;;;;15.68;2.20;;;30.90;94.30;;;30.62;48.33;100621.66;5010213;28;20034;-79
2022/07/26 07:32:10;;;;;;;15.35;2.65;;;30.60;94.40;;;30.24;49.12;100618.63;4998705;28;20061;-79
2022/07/26 07:34:36;;;;;;;12.30;2.70;;;30.00;94.50;;;29.15;51.20;100613.75;4995810;28;20123;-79
2022/07/26 07:37:03;;;;;;;10.35;2.70;;;29.60;95.00;;;29.24;51.23;100618.00;5009254;28;20838;-79
2022/07/26 07:39:29;;;;;;;15.65;2.33;;;29.80;95.40;;;30.39;49.24;100627.47;4982507;28;20686;-78
2022/07/26 07:41:55;;;;;;;10.48;2.40;;;30.10;94.80;;;29.84;49.14;100626.56;4993594;28;20045;-78
2022/07/26 07:44:21;;;;;;;15.90;2.50;;;30.40;94.50;;;31.05;47.47;100625.94;5017131;28;20584;-78
2022/07/26 07:46:49;;;;;;;10.45;2.22;;;30.70;94.80;;;30.63;47.85;100630.69;5014751;28;20413;-79
2022/07/26 07:49:15;;;;;;;7.25;1.92;;;30.40;92.60;;;29.22;48.73;100629.06;4984147;28;20049;-78
2022/07/26 07:51:41;;;;;;;13.25;2.38;;;29.50;93.40;;;27.81;51.95;100622.19;4969750;28;20069;-79
2022/07/26 07:54:07;;;;;;;17.45;2.55;;;28.30;94.70;;;26.38;55.48;100623.69;5021013;28;20113;-78
2022/07/26 07:56:34;;;;;;;12.10;2.72;;;27.20;96.20;;;25.48;58.59;100637.47;4973365;28;20117;-78
2022/07/26 07:59:04;;;;;;;11.23;2.33;;;26.80;98.30;;;26.34;58.92;100630.47;5005996;28;20045;-78
2022/07/26 08:01:30;;;;;;;10.32;2.60;;;26.80;98.50;;;26.56;57.40;100628.84;4981233;28;20138;-79
2022/07/26 08:03:56;;;;;;;8.00;2.30;;;27.00;98.70;;;26.98;56.83;100632.97;5031275;28;20037;-79
2022/07/26 08:06:21;;;;;;;7.07;2.20;;;27.30;98.00;;;27.45;54.89;100622.09;4992258;28;20045;-79
2022/07/26 08:08:47;;;;;;;10.40;1.75;;;27.60;97.60;;;27.83;53.73;100630.97;4970488;28;20045;-78
2022/07/26 08:11:13;;;;;;;11.32;2.30;;;27.80;96.80;;;27.90;53.57;100626.50;4990018;28;20468;-78
2022/07/26 08:13:39;;;;;;;10.40;1.80;;;27.90;96.90;;;28.07;53.39;100631.75;4975668;28;20042;-79
2022/07/26 08:16:08;;;;;;;8.63;2.10;;;27.80;96.50;;;27.45;53.73;100639.16;5036849;28;20046;-77
2022/07/26 08:18:34;;;;;;;10.40;2.20;;;27.60;96.70;;;26.92;55.53;100627.44;4992621;28;20048;-78
2022/07/26 08:21:02;;;;;;;9.63;2.33;;;27.20;97.70;;;26.52;56.84;100624.81;4985341;28;20042;-78
2022/07/26 08:23:28;;;;;;;7.32;2.15;;;26.80;97.70;;;26.17;57.68;100623.47;5008527;28;20133;-77
2022/07/26 08:25:53;;;;;;;5.85;1.88;;;26.50;98.60;;;25.84;58.88;100620.03;5035167;28;20120;-78
2022/07/26 08:28:19;;;;;;;8.40;2.10;;;26.30;98.40;;;25.59;59.34;100630.88;4984412;28;20038;-78
2022/07/26 08:30:45;;;;;;;11.75;1.60;;;26.10;98.00;;;25.38;58.62;100623.34;5008737;28;20027;-77
2022/07/26 08:33:11;;;;;;;5.72;1.60;;;25.90;97.90;;;25.24;58.09;100626.72;5018227;28;20075;-78
2022/07/26 08:35:37;;;;;;;10.25;1.33;;;25.50;98.70;;;24.67;60.17;100624.84;5009174;28;20025;-78
2022/07/26 08:38:03;;;;;;;9.02;1.77;;;25.20;98.80;;;24.18;60.89;100630.88;4997435;28;20032;-78
2022/07/26 08:40:28;;;;;;;8.93;1.85;;;24.80;99.80;;;23.78;63.36;100628.84;5003767;28;20026;-78
2022/07/26 08:42:56;;;;;;;5.47;1.63;;;24.20;99.90;;;23.09;65.98;100640.28;5009369;28;20099;-78
2022/07/26 08:45:24;;;;;;;15.68;2.13;;;24.20;99.90;;;23.83;66.05;100648.03;4976647;28;20030;-77
2022/07/26 08:47:51;;;;;;;5.88;1.50;;;24.30;99.90;;;24.14;63.71;100645.66;4981807;28;20033;-78
2022/07/26 08:50:18;;;;;;;8.70;1.83;;;24.70;99.90;;;24.77;64.77;100647.91;4957988;28;20409;-77
2022/07/26 08:52:45;;;;;;;6.55;1.23;;;25.10;99.90;;;25.15;60.08;100647.41;5003065;28;20049;-78
2022/07/26 08:55:16;;;;;;;10.63;1.60;;;25.30;99.90;;;25.16;61.61;100647.25;4982492;28;20664;-78
2022/07/26 08:57:45;;;;;;;9.23;1.40;;;25.30;99.90;;;24.87;60.91;100647.72;4965474;28;20680;-77
2022/07/26 09:00:31;;;;;;;5.60;1.60;;;25.20;99.90;;;24.69;60.03;100649.75;4967891;28;20113;-76
2022/07/26 09:03:00;;;;;;;4.88;1.45;;;25.10;99.10;;;24.46;60.15;100644.09;4973895;28;20099;-77
2022/07/26 09:05:33;;;;;;;4.20;1.20;;;24.90;98.90;;;24.24;60.40;100629.41;4979801;28;20039;-77
2022/07/26 09:08:01;;;;;;;6.78;1.33;;;24.90;99.90;;;24.60;61.85;100642.63;4977697;28;20056;-76
2022/07/26 09:10:32;;;;;;;4.82;1.23;;;25.10;99.90;;;24.96;63.66;100648.59;4993480;28;20043;-77
2022/07/26 09:12:59;;;;;;;8.43;1.30;;;25.40;99.90;;;25.32;59.72;100641.03;4995035;28;20030;-77
2022/07/26 09:15:27;;;;;;;5.85;1.58;;;25.70;99.90;;;25.67;60.03;100651.59;4998509;28;20045;-77
2022/07/26 09:17:59;;;;;;;8.32;1.20;;;26.00;99.50;;;26.09;56.93;100635.16;4995835;28;20036;-77
2022/07/26 09:20:30;;;;;;;5.20;1.02;;;26.30;98.50;;;26.15;57.03;100641.69;5000759;28;20038;-78
2022/07/26 09:23:07;;;;;;;7.82;0.98;;;26.40;98.00;;;26.27;56.37;100640.28;5012371;28;20029;-77
2022/07/26 09:25:34;;;;;;;;;;;26.50;98.60;;;26.42;55.75;100645.78;5023773;28;20026;-77
2022/07/26 09:28:05;;;;;;;4.57;0.90;;;26.70;98.20;;;26.57;56.39;100648.63;5003254;28;20317;-77
2022/07/26 09:30:32;;;;;;;14.73;1.38;;;26.80;95.60;;;26.36;53.64;100663.53;5019591;28;20025;-77
2022/07/26 09:33:05;;;;;;;5.65;1.17;;;26.70;95.30;;;25.95;54.29;100662.84;4990241;28;20042;-77
2022/07/26 09:35:37;;;;;;;11.27;1.30;;;26.30;95.30;;;25.44;54.81;100664.94;4973367;28;20149;-77
2022/07/26 09:38:37;;;;;;;8.32;1.20;;;25.90;96.30;;;24.86;56.03;100672.13;5007643;28;20033;-77
2022/07/26 09:41:15;;;;;;;6.28;1.20;;;25.30;97.20;;;24.02;58.79;100665.78;5004338;28;20486;-77
2022/07/26 09:43:41;;;;;;;6.50;1.35;;;24.50;97.80;;;23.01;61.52;100672.44;5008024;28;20106;-77
2022/07/26 09:46:10;;;;;;;5.50;1.80;;;23.90;99.20;;;22.36;64.50;100677.91;4959785;28;20509;-77
2022/07/26 09:48:38;;;;;;;8.35;0.93;;;23.10;99.90;;;21.35;69.11;100692.81;5027732;28;20034;-78
2022/07/26 09:51:12;;;;;;;5.78;0.80;;;22.30;99.90;;;20.43;74.51;100701.97;4993363;28;20041;-77
2022/07/26 09:53:49;;;;;;;3.85;0.90;;;21.70;99.90;;;19.93;77.42;100708.06;5000613;28;20548;-77
2022/07/26 09:56:15;;;;;;;1.55;0.40;;;21.00;99.90;;;19.19;80.75;100718.78;4976054;28;20104;-77
2022/07/26 09:58:47;;;;;;;2.40;0.40;;;20.60;99.90;;;18.93;83.11;100727.13;4997957;28;20438;-77
2022/07/26 10:01:16;;;;;;;1.02;0.30;;;20.20;99.90;;;18.65;84.58;100728.47;4995546;28;20030;-78
2022/07/26 10:03:42;;;;;;;1.42;0.30;;;20.20;99.90;;;18.60;86.15;100730.69;5004825;28;20112;-77
2022/07/26 10:06:08;;;;;;;3.17;0.65;;;19.90;99.90;;;18.77;87.47;100726.66;5021187;28;20514;-77
2022/07/26 10:08:34;;;;;;;1.65;0.43;;;19.80;99.90;;;18.67;84.98;100734.53;5002400;28;20026;-77
2022/07/26 10:11:08;;;;;;;2.33;0.40;;;19.80;99.90;;;18.76;84.51;100725.78;4989318;28;20033;-78
2022/07/26 10:13:36;;;;;;;1.50;0.20;;;19.80;99.90;;;18.98;84.12;100740.91;5008937;28;20487;-77